• Join FlightAware (Why Join?)
  • Login
  • US Flag 
06:00PM EDT


 

Airport Tracker/Info


-or-


 

Live Flight TrackerFlight Track Log ✈ EGF3796 ✈ 02-May-2013 ✈ KORD - KXNA

Flight Track Log - Related Links

Times and Time Zones

All times are in EDT time to prevent confusion due to time zone crossing. See the EGF3796 flight status page for this flight to view local times or setup timezone preferences in your user account.

Time Position Orientation Groundspeed Altitude Reporting Facility
EDT Latitude Longitude Course Direction KTS MPH feet Rate Location/Type
06:32PM 41.9500 -87.8333 207° Southwest 215 247 3,900  Level Chicago TRACON
06:33PM 41.9000 -87.7833 143° Southeast 241 277 5,000 540 Climbing Chicago TRACON
06:34PM 41.6791 -88.0395 203° Southwest  Level FlightAware Approximate
06:34PM 41.8333 -87.7667 169° South 258 297 5,000  Level Chicago TRACON
06:35PM 41.5806 -88.0911 197° South  Level FlightAware Approximate
06:36PM 41.4791 -88.1317 197° South  Level FlightAware Approximate
06:36PM 41.7231 -87.8042 194° South 254 292 7,900  Level Chicago Center
06:37PM 41.3772 -88.1697 201° Southwest  Level FlightAware Approximate
06:37PM 41.6889 -87.8903 242° Southwest 281 323 10,500  Level Chicago Center
06:38PM 41.2798 -88.2190 207° Southwest  Level FlightAware Approximate
06:38PM 41.6764 -87.9956 261° West 289 333 13,700  Level Chicago Center
06:39PM 41.6108 -88.0867 226° Southwest 318 366 15,400 1,740 Climbing Chicago Center
06:40PM 41.5247 -88.1253 199° South 330 380 17,400 1,680 Climbing Chicago Center
06:41PM 41.4392 -88.1644 199° South 335 386 18,900 1,560 Climbing Chicago Center
06:42PM 41.3333 -88.2128 199° South 346 398 20,700 1,560 Climbing Chicago Center
06:43PM 41.2439 -88.2528 199° South 344 396 22,200 1,260 Climbing Chicago Center
06:44PM 41.1542 -88.2936 199° South 343 395 23,400 1,020 Climbing Chicago Center
06:45PM 41.0600 -88.3369 199° South 355 409 24,400 960 Climbing Chicago Center
06:46PM 40.9581 -88.3806 198° South 380 437 25,400 1,200 Climbing Chicago Center
06:47PM 40.8331 -88.4375 199° South 395 455 27,000 1,440 Climbing Chicago Center
06:48PM 40.7269 -88.4850 199° South 402 463 28,400 1,320 Climbing Chicago Center
06:49PM 40.6208 -88.5314 198° South 404 465 29,800 1,320 Climbing Chicago Center
06:50PM 40.5147 -88.5783 199° South 404 465 31,200 1,380 Climbing Chicago Center
06:51PM 40.4036 -88.6275 199° South 398 458 32,700 840 Climbing Chicago Center
06:52PM 40.3008 -88.6908 205° Southwest 416 479 33,000 120 Climbing Chicago Center
06:53PM 40.2153 -88.7981 224° Southwest 426 490 33,000  Level Chicago Center
06:55PM 40.1267 -88.9089 224° Southwest 437 503 33,000  Level Chicago Center
06:56PM 40.0197 -89.0447 224° Southwest 444 511 33,000  Level Chicago Center
06:57PM 39.9308 -89.1575 224° Southwest 443 510 33,000  Level Kansas City Center
06:58PM 39.8411 -89.2697 224° Southwest 445 512 33,000 120 Level Kansas City Center
06:59PM 39.7525 -89.3797 224° Southwest 442 509 33,300 360 Climbing Kansas City Center
07:00PM 39.6661 -89.4881 224° Southwest 439 505 33,800 480 Climbing Kansas City Center
07:01PM 39.5831 -89.5978 226° Southwest 432 497 34,300 600 Climbing Kansas City Center
07:02PM 39.5039 -89.7106 228° Southwest 427 491 35,100 840 Climbing Kansas City Center
07:03PM 39.4269 -89.8267 229° Southwest 425 489 36,100 1,020 Climbing Kansas City Center
07:04PM 39.3350 -89.9611 229° Southwest 420 483 37,300 900 Climbing Kansas City Center
07:05PM 39.2594 -90.0700 228° Southwest 412 474 38,000 300 Climbing Kansas City Center
07:06PM 39.1833 -90.1794 228° Southwest 412 474 38,000  Level Kansas City Center
07:07PM 39.1039 -90.2936 228° Southwest 423 487 38,000  Level Kansas City Center
07:08PM 39.0258 -90.4078 229° Southwest 428 493 38,000  Level Kansas City Center
07:09PM 38.9294 -90.5453 228° Southwest 427 491 38,000  Level Kansas City Center
07:10PM 38.8497 -90.6597 228° Southwest 427 491 38,000  Level Kansas City Center
07:11PM 38.7747 -90.7642 227° Southwest 427 491 38,000  Level Kansas City Center
07:12PM 38.6961 -90.8744 228° Southwest 425 489 38,000  Level Kansas City Center
07:13PM 38.6186 -90.9839 228° Southwest 421 484 38,000  Level Kansas City Center
07:14PM 38.5228 -91.1167 227° Southwest 428 493 38,000  Level Kansas City Center
07:15PM 38.4442 -91.2281 228° Southwest 425 489 38,000  Level Kansas City Center
07:16PM 38.3642 -91.3369 227° Southwest 421 484 38,000  Level Kansas City Center
07:17PM 38.2764 -91.4617 228° Southwest 419 482 38,000  Level Kansas City Center
07:18PM 38.1939 -91.5700 226° Southwest 422 486 38,000  Level Kansas City Center
07:19PM 38.1142 -91.6814 228° Southwest 423 487 38,000  Level Kansas City Center
07:20PM 38.0347 -91.7892 227° Southwest 417 480 38,000 -480 Level Kansas City Center
07:21PM 37.9533 -91.8992 227° Southwest 419 482 37,100 -660 Descending Kansas City Center
07:22PM 37.8736 -92.0083 227° Southwest 416 479 36,700 -480 Descending Kansas City Center
07:23PM 37.7944 -92.1164 227° Southwest 416 479 36,200 -360 Descending Kansas City Center
07:24PM 37.7164 -92.2242 228° Southwest 419 482 36,000 -300 Descending Kansas City Center
07:25PM 37.6356 -92.3308 226° Southwest 410 472 35,600 -780 Descending Kansas City Center
07:26PM 37.5567 -92.4353 226° Southwest 407 468 34,500 -1,740 Descending Kansas City Center
07:28PM 37.4583 -92.5683 227° Southwest 429 494 32,100 -2,160 Descending Kansas City Center
07:29PM 37.3725 -92.6811 226° Southwest 439 505 30,100 -2,040 Descending Kansas City Center
07:30PM 37.2875 -92.7911 226° Southwest 437 503 27,900 -2,160 Descending Kansas City Center
07:31PM 37.2078 -92.8958 226° Southwest 420 483 25,700 -2,040 Descending Kansas City Center
07:32PM 37.1303 -92.9714 218° Southwest 375 432 23,800 -1,860 Descending Kansas City Center
07:33PM 37.0325 -92.9822 185° South 356 410 21,900 -1,980 Descending Kansas City Center
07:34PM 36.9847 -93.0950 242° Southwest 364 419 19,800 -2,040 Descending Kansas City Center
07:35PM 36.9447 -93.2072 246° West 357 411 17,800 -1,860 Descending Kansas City Center
07:36PM 36.8847 -93.3206 237° Southwest 337 388 16,100 -960 Descending Kansas City Center
07:37PM 36.8292 -93.3897 225° Southwest 324 373 15,900 -1,020 Descending Kansas City Center
07:38PM 36.7667 -93.4700 226° Southwest 323 372 14,000 -2,400 Descending Kansas City Center
07:39PM 36.6928 -93.5636 225° Southwest 318 366 11,000 -1,980 Descending Kansas City Center
07:40PM 36.6317 -93.6419 226° Southwest 317 365 10,000 -540 Descending Kansas City Center
07:41PM 36.5692 -93.7122 222° Southwest 309 356 10,000 -120 Level Kansas City Center
07:42PM 36.4969 -93.7839 219° Southwest 303 349 9,800 -900 Descending Kansas City Center
07:43PM 36.4422 -93.8400 220° Southwest 271 312 8,200 -1,800 Descending Kansas City Center
07:44PM 36.3881 -93.8978 221° Southwest 256 295 6,200 -1,980 Descending Kansas City Center
07:45PM 36.3308 -93.9539 218° Southwest 260 299 4,200 -1,080 Descending Kansas City Center
07:46PM 36.2744 -94.0119 220° Southwest 261 300 4,000 -120 Descending Kansas City Center
07:47PM 36.2172 -94.0711 220° Southwest 263 303 4,000  Level Kansas City Center
07:48PM 36.1603 -94.1297 220° Southwest 264 304 4,100 -120 Climbing Kansas City Center
07:49PM 36.1231 -94.1981 236° Southwest 250 288 3,800 -300 Descending Kansas City Center